createdAt,value
2018-09-21T01:35:09.483Z,48.43
2018-09-21T01:37:47.545Z,42.20
2018-09-21T01:40:26.844Z,47.57
2018-09-21T01:43:05.163Z,44.20
2018-09-21T01:45:46.368Z,45.60
2018-09-21T01:48:26.222Z,44.30
2018-09-21T01:51:05.484Z,43.70
2018-09-21T01:53:45.170Z,45.00
2018-09-21T01:56:26.542Z,45.73
2018-09-21T01:59:05.776Z,43.10
2018-09-21T02:01:44.329Z,73.77
2018-09-21T02:04:27.004Z,61.10
2018-09-21T02:07:05.922Z,45.23
2018-09-21T02:09:45.261Z,47.13
2018-09-21T02:12:23.590Z,49.10
2018-09-21T02:15:03.665Z,55.57
2018-09-21T02:17:43.037Z,47.93
2018-09-21T02:20:21.924Z,42.13
2018-09-21T02:23:01.446Z,44.53
2018-09-21T02:25:41.344Z,46.10
2018-09-21T02:28:23.421Z,42.87
2018-09-21T02:31:02.004Z,42.30
2018-09-21T02:33:39.650Z,46.20
2018-09-21T02:36:18.229Z,43.60
2018-09-21T02:38:58.991Z,50.20
2018-09-21T02:41:38.543Z,51.53
2018-09-21T02:44:18.072Z,48.30
2018-09-21T02:46:58.604Z,52.87
2018-09-21T02:49:37.503Z,53.43
2018-09-21T02:52:16.084Z,67.70
2018-09-21T02:54:55.921Z,59.10
2018-09-21T02:57:35.865Z,90.63
2018-09-21T03:00:14.891Z,88.80
2018-09-21T03:02:53.304Z,76.83
2018-09-21T03:05:31.304Z,109.77
2018-09-21T03:08:09.905Z,225.47
2018-09-21T03:10:46.622Z,270.03
2018-09-21T03:13:25.248Z,239.57
2018-09-21T03:16:04.947Z,349.13
2018-09-21T03:18:46.702Z,314.13
2018-09-21T03:21:25.500Z,454.07
2018-09-21T03:24:04.201Z,334.93
2018-09-21T03:26:42.388Z,439.97
2018-09-21T03:29:21.261Z,381.17
2018-09-21T03:31:59.288Z,542.70
2018-09-21T03:34:43.428Z,557.77
2018-09-21T03:37:22.524Z,517.80
2018-09-21T03:40:01.922Z,447.23
2018-09-21T03:42:39.319Z,536.20
2018-09-21T03:45:16.944Z,348.83
2018-09-21T03:47:58.303Z,199.10
2018-09-21T03:50:37.966Z,301.80
2018-09-21T03:53:16.545Z,356.73
2018-09-21T03:55:55.822Z,333.03
2018-09-21T03:58:33.552Z,340.60
2018-09-21T04:01:11.627Z,318.53
2018-09-21T04:03:48.863Z,304.53
2018-09-21T04:06:26.541Z,259.83
2018-09-21T04:09:03.443Z,193.07
2018-09-21T04:11:42.185Z,117.73
2018-09-21T04:14:21.882Z,196.77
2018-09-21T04:17:01.762Z,120.80
2018-09-21T04:19:41.343Z,98.43
2018-09-21T04:22:23.704Z,75.97
2018-09-21T04:25:02.201Z,173.07
2018-09-21T04:27:42.590Z,146.13
2018-09-21T04:30:22.132Z,313.10
2018-09-21T04:33:04.184Z,550.97
2018-09-21T04:35:44.422Z,336.50
2018-09-21T04:38:24.952Z,141.87
2018-09-21T04:41:02.240Z,136.83
2018-09-21T04:43:41.925Z,173.77
2018-09-21T04:46:20.965Z,134.93
2018-09-21T04:49:00.064Z,170.40
2018-09-21T04:51:38.168Z,220.33
2018-09-21T04:54:18.290Z,122.90
2018-09-21T04:56:56.482Z,157.13
2018-09-21T04:59:34.803Z,418.47
2018-09-21T05:02:15.712Z,149.10
2018-09-21T05:04:57.382Z,249.20
2018-09-21T05:07:34.743Z,385.87
2018-09-21T05:10:16.389Z,341.50
2018-09-21T05:13:00.024Z,216.87
2018-09-21T05:15:36.525Z,352.27
2018-09-21T05:18:14.988Z,398.93
2018-09-21T05:20:51.365Z,456.97
2018-09-21T05:23:31.342Z,306.43
2018-09-21T05:26:09.381Z,317.13
2018-09-21T05:28:46.280Z,323.77
2018-09-21T05:31:23.479Z,312.20
2018-09-21T05:33:59.919Z,240.30
2018-09-21T05:36:36.229Z,203.13
2018-09-21T05:39:17.288Z,521.73
2018-09-21T05:41:56.963Z,225.83
2018-09-21T05:44:39.259Z,304.93
2018-09-21T05:47:16.903Z,163.90
2018-09-21T05:49:53.682Z,92.03
2018-09-21T06:46:07.042Z,128.27
2018-09-21T06:48:45.216Z,119.00
2018-09-21T06:51:28.978Z,95.27
2018-09-21T06:54:07.578Z,296.87
2018-09-21T06:56:43.540Z,129.37
2018-09-21T06:59:22.718Z,122.80
2018-09-21T07:02:07.962Z,114.63
2018-09-21T07:04:48.316Z,516.07
2018-09-21T07:07:25.213Z,463.57
2018-09-21T07:10:08.031Z,114.13
2018-09-21T07:12:47.353Z,764.03
2018-09-21T07:15:29.822Z,584.60
2018-09-21T07:18:07.420Z,300.20
2018-09-21T07:20:47.686Z,597.87
2018-09-21T07:23:26.863Z,385.20
2018-09-21T07:26:07.255Z,266.17
2018-09-21T07:28:48.072Z,211.63
2018-09-21T07:31:25.939Z,83.60
2018-09-21T07:34:06.199Z,211.77
2018-09-21T07:36:45.220Z,118.60
2018-09-21T07:39:29.843Z,99.73
2018-09-21T07:42:08.806Z,63.27
2018-09-21T07:44:49.400Z,136.27
2018-09-21T07:47:26.164Z,118.40
2018-09-21T07:50:11.566Z,115.97
2018-09-21T07:52:55.038Z,114.80
2018-09-21T07:55:31.574Z,44.73
2018-09-21T07:58:08.598Z,36.97
2018-09-21T08:00:47.902Z,101.43
2018-09-21T08:03:34.005Z,38.77
2018-09-21T08:06:19.856Z,42.93
2018-09-21T08:08:57.127Z,56.73
2018-09-21T08:11:41.446Z,125.93
2018-09-21T08:14:21.237Z,257.20
2018-09-21T08:16:58.562Z,301.63
2018-09-21T08:19:37.357Z,111.10
2018-09-21T08:22:14.840Z,201.97
2018-09-21T08:24:52.326Z,265.23
2018-09-21T08:27:30.855Z,263.03
2018-09-21T08:30:10.481Z,164.77
2018-09-21T08:32:47.781Z,86.13
2018-09-21T08:35:25.802Z,68.90
2018-09-21T08:38:06.899Z,58.90
2018-09-21T08:40:45.299Z,64.50
2018-09-21T08:43:26.098Z,103.00
2018-09-21T08:46:04.245Z,71.70
2018-09-21T08:48:41.682Z,75.03
2018-09-21T08:51:23.715Z,71.60
2018-09-21T08:54:03.321Z,86.77
2018-09-21T08:56:43.899Z,100.13
2018-09-21T08:59:20.979Z,120.75
2018-09-21T09:01:58.427Z,120.50
2018-09-21T09:04:36.248Z,99.15
2018-09-21T09:07:13.458Z,82.93
2018-09-21T09:09:54.900Z,40.08
2018-09-21T09:12:33.582Z,33.25
2018-09-21T09:15:11.201Z,26.77
2018-09-21T09:17:48.078Z,23.38
2018-09-21T09:20:29.127Z,25.12
2018-09-21T09:23:07.801Z,26.33
2018-09-21T09:25:47.019Z,29.12
2018-09-21T09:28:24.196Z,38.40
2018-09-21T09:31:07.736Z,45.63
2018-09-21T09:33:45.417Z,43.45
2018-09-21T09:36:22.563Z,41.37
2018-09-21T09:39:00.726Z,66.97
2018-09-21T09:41:39.501Z,41.18
2018-09-21T09:44:19.728Z,47.60
2018-09-21T09:46:58.876Z,43.13
2018-09-21T09:49:38.021Z,51.37
2018-09-21T09:52:18.940Z,49.65
2018-09-21T09:54:58.945Z,65.57
2018-09-21T09:57:41.385Z,51.85
2018-09-21T10:00:23.716Z,51.70
2018-09-21T10:03:01.516Z,33.08
2018-09-21T10:05:45.782Z,42.15
2018-09-21T10:08:32.385Z,35.78
2018-09-21T10:11:13.035Z,42.48
2018-09-21T10:13:54.463Z,36.03
2018-09-21T10:16:37.085Z,31.35
2018-09-21T10:19:23.416Z,29.00
2018-09-21T10:22:04.939Z,26.33
2018-09-21T10:24:44.427Z,25.08
2018-09-21T10:27:23.752Z,23.42
2018-09-21T10:30:01.880Z,22.45
2018-09-21T10:32:40.736Z,22.35
2018-09-21T10:35:20.542Z,22.15
2018-09-21T10:38:00.380Z,20.32
2018-09-21T10:40:44.103Z,26.15
2018-09-21T10:43:25.579Z,22.35
2018-09-21T10:46:03.406Z,22.00
2018-09-21T10:48:43.419Z,22.55
2018-09-21T10:51:23.096Z,22.95
2018-09-21T10:53:59.686Z,22.67
2018-09-21T10:56:42.657Z,22.22
2018-09-21T10:59:24.019Z,22.22
2018-09-21T11:02:05.477Z,22.73
2018-09-21T11:04:43.557Z,22.52
2018-09-21T11:07:22.169Z,23.12
2018-09-21T11:10:01.500Z,23.85
2018-09-21T11:12:41.621Z,23.12
2018-09-21T11:15:26.583Z,23.18
2018-09-21T11:18:06.680Z,22.58
2018-09-21T11:20:52.122Z,22.20
2018-09-21T11:23:33.740Z,22.98
2018-09-21T11:26:16.017Z,24.12
2018-09-21T11:28:55.661Z,24.05
2018-09-21T11:31:40.516Z,23.73
2018-09-21T11:34:19.325Z,25.60
2018-09-21T11:36:59.477Z,23.15
2018-09-21T11:39:38.861Z,24.40
2018-09-21T11:42:17.861Z,26.30
2018-09-21T11:44:58.499Z,24.20
2018-09-21T11:47:35.726Z,24.25
2018-09-21T11:50:15.296Z,23.70
2018-09-21T11:52:54.535Z,23.92
2018-09-21T11:55:35.802Z,25.60
2018-09-21T11:58:15.541Z,23.85
2018-09-21T12:00:55.154Z,24.15
2018-09-21T12:03:37.840Z,23.77
2018-09-21T12:06:18.724Z,22.07
2018-09-21T12:08:57.286Z,25.50
2018-09-21T12:11:43.078Z,24.15
2018-09-21T12:14:20.407Z,22.45
2018-09-21T12:17:01.855Z,22.62
2018-09-21T12:19:43.216Z,24.18
2018-09-21T12:22:22.599Z,22.17
2018-09-21T12:24:59.983Z,23.47
2018-09-21T12:27:41.417Z,23.20
2018-09-21T12:30:29.611Z,22.75
2018-09-21T12:33:06.877Z,21.55
2018-09-21T12:35:44.164Z,23.50
2018-09-21T12:38:22.578Z,23.12
2018-09-21T12:40:59.022Z,24.47
2018-09-21T12:43:39.280Z,25.70
2018-09-21T12:46:30.135Z,22.73
2018-09-21T12:49:08.760Z,24.18
2018-09-21T12:51:50.834Z,24.77
2018-09-21T12:54:30.538Z,24.12
2018-09-21T12:57:13.319Z,24.67
2018-09-21T12:59:54.642Z,24.23
2018-09-21T13:02:37.606Z,26.45
2018-09-21T13:05:19.259Z,28.47
2018-09-21T13:08:01.738Z,28.83
2018-09-21T13:10:42.420Z,29.35
2018-09-21T13:13:24.081Z,30.57
2018-09-21T13:16:00.696Z,31.97
2018-09-21T13:18:38.362Z,33.90
2018-09-21T13:21:17.448Z,29.15
2018-09-21T13:24:16.156Z,30.43
2018-09-21T13:26:56.203Z,31.60
2018-09-21T13:29:33.804Z,33.75
2018-09-21T13:32:14.999Z,30.17
2018-09-21T13:34:54.857Z,30.15
2018-09-21T13:37:37.757Z,32.80
2018-09-21T13:40:17.293Z,33.02
2018-09-21T13:42:59.278Z,30.77
2018-09-21T13:45:37.082Z,30.57
2018-09-21T13:48:18.221Z,31.97
2018-09-21T13:51:02.835Z,26.68
2018-09-21T13:53:41.052Z,25.15
2018-09-21T13:56:20.355Z,24.47
2018-09-21T13:59:03.257Z,23.15
2018-09-21T14:01:45.599Z,21.12
2018-09-21T14:04:27.079Z,21.37
2018-09-21T14:07:12.170Z,21.85
2018-09-21T14:09:53.294Z,22.32
2018-09-21T14:12:33.117Z,22.87
2018-09-21T14:15:11.887Z,25.65
2018-09-21T14:17:49.396Z,23.12
2018-09-21T14:20:26.937Z,21.82
2018-09-21T14:23:04.277Z,21.35
2018-09-21T14:25:43.061Z,23.55
2018-09-21T14:28:23.176Z,21.73
2018-09-21T14:31:03.659Z,22.70
2018-09-21T14:33:41.919Z,24.30
2018-09-21T14:36:25.260Z,22.42
2018-09-21T14:39:06.170Z,24.00
2018-09-21T14:41:45.480Z,24.77
2018-09-21T14:44:28.402Z,26.50
2018-09-21T14:47:09.477Z,26.17
2018-09-21T14:49:47.263Z,28.65
2018-09-21T14:52:28.100Z,33.18
2018-09-21T14:55:09.177Z,38.38
2018-09-21T14:57:57.203Z,39.50
2018-09-21T15:00:40.382Z,46.42
2018-09-21T15:03:19.635Z,50.17
2018-09-21T15:06:01.346Z,53.00
2018-09-21T15:08:38.956Z,56.53
2018-09-21T15:11:18.541Z,50.95
2018-09-21T17:10:46.629Z,43.47
2018-09-21T17:13:31.814Z,76.07
2018-09-21T17:16:16.570Z,151.40
2018-09-21T17:18:57.148Z,277.60
2018-09-21T17:21:38.593Z,264.33
2018-09-21T17:24:17.430Z,287.27
2018-09-21T17:27:03.133Z,339.47
2018-09-21T17:29:46.286Z,350.27
2018-09-21T17:32:29.523Z,412.13
2018-09-21T17:35:10.376Z,550.07
2018-09-21T17:37:59.698Z,594.53
2018-09-21T17:40:39.528Z,457.67
2018-09-21T17:43:19.087Z,440.60
2018-09-21T17:45:59.552Z,533.23
2018-09-21T17:48:39.449Z,514.13
2018-09-21T17:51:20.993Z,567.73
2018-09-21T17:54:00.949Z,537.37
2018-09-21T17:56:39.412Z,468.23
2018-09-21T17:59:19.035Z,349.03
2018-09-21T18:01:57.028Z,373.37
2018-09-21T18:04:36.028Z,437.17
2018-09-21T18:07:21.965Z,502.03
2018-09-21T18:10:01.149Z,421.47
2018-09-21T18:12:42.709Z,225.03
2018-09-21T18:15:21.591Z,60.53
2018-09-21T18:18:01.934Z,231.87
2018-09-21T18:20:40.052Z,266.63
2018-09-21T18:23:19.393Z,334.23
2018-09-21T18:26:00.416Z,586.97
2018-09-21T18:28:41.227Z,218.57
2018-09-21T18:31:20.511Z,64.73
2018-09-21T18:34:03.985Z,81.23
2018-09-21T18:36:42.412Z,188.73
2018-09-21T18:39:25.322Z,375.63
2018-09-21T18:42:02.715Z,400.80
2018-09-21T18:44:42.842Z,206.40
2018-09-21T18:47:25.408Z,195.00
2018-09-21T18:50:04.791Z,399.53
2018-09-21T18:52:44.212Z,320.30
2018-09-21T18:55:22.194Z,303.53
2018-09-21T18:58:02.604Z,117.97
2018-09-21T19:03:26.677Z,42.63
2018-09-21T19:06:08.068Z,51.43
2018-09-21T19:08:49.636Z,33.73
2018-09-21T19:11:27.207Z,51.07
2018-09-21T19:14:06.487Z,172.03
2018-09-21T19:16:46.269Z,55.70
2018-09-21T19:19:26.335Z,91.47
2018-09-21T19:22:04.992Z,48.03
2018-09-21T19:24:50.954Z,37.50
2018-09-21T19:27:29.856Z,37.30
2018-09-21T19:30:13.827Z,49.90
2018-09-21T19:32:51.254Z,33.07
2018-09-21T19:35:30.446Z,97.10
2018-09-21T19:38:08.317Z,126.03
2018-09-21T19:40:50.791Z,209.13
2018-09-21T19:43:33.411Z,68.30
2018-09-21T19:46:12.590Z,136.40
2018-09-21T19:49:02.011Z,320.03
2018-09-21T19:51:45.537Z,160.77
2018-09-21T19:54:28.034Z,89.83
2018-09-21T19:57:06.451Z,53.70
2018-09-21T19:59:47.369Z,164.73
2018-09-21T20:02:25.690Z,56.17
2018-09-21T20:05:03.789Z,200.67
2018-09-21T20:07:45.433Z,313.27
2018-09-21T20:10:25.452Z,156.23
2018-09-21T20:13:09.251Z,43.80
2018-09-21T20:15:50.175Z,121.97
2018-09-21T20:18:30.571Z,160.10
2018-09-21T20:21:10.810Z,135.57
2018-09-21T20:23:53.972Z,322.80
2018-09-21T20:26:33.812Z,377.23
2018-09-21T20:29:14.035Z,378.67
2018-09-21T20:31:59.830Z,361.80
2018-09-21T20:34:39.911Z,292.07
2018-09-21T20:37:20.248Z,187.27
2018-09-21T20:40:00.085Z,111.63
2018-09-21T20:42:40.405Z,70.03
2018-09-21T20:45:19.927Z,100.20
2018-09-21T20:48:00.313Z,121.63
2018-09-21T20:50:41.750Z,44.87
2018-09-21T20:53:21.657Z,31.23
2018-09-21T20:56:06.809Z,31.13
2018-09-21T20:58:48.632Z,34.57
2018-09-21T21:01:30.353Z,34.67
2018-09-21T21:04:09.792Z,42.57
2018-09-21T21:06:48.138Z,54.97
2018-09-21T21:09:26.394Z,102.43
2018-09-21T21:12:08.546Z,105.83
2018-09-21T21:14:50.989Z,199.60
2018-09-21T21:17:32.610Z,190.40
2018-09-21T21:20:14.428Z,88.17
2018-09-21T21:22:56.366Z,91.10
2018-09-21T21:25:36.652Z,102.60
2018-09-21T21:28:17.830Z,93.83
2018-09-21T21:31:01.729Z,82.03
2018-09-21T21:33:43.110Z,94.87
2018-09-21T21:36:25.466Z,211.67
2018-09-21T21:39:06.055Z,121.30
2018-09-21T21:41:46.990Z,266.30
2018-09-21T21:44:26.630Z,271.63
2018-09-21T21:47:06.833Z,315.23
2018-09-21T21:49:46.672Z,338.60
2018-09-21T21:52:27.493Z,358.10
2018-09-21T21:55:10.309Z,352.53
2018-09-21T21:57:51.308Z,316.60
2018-09-21T22:01:34.706Z,327.70
2018-09-21T22:04:16.226Z,199.77
2018-09-21T22:06:56.150Z,214.20
2018-09-21T22:09:36.015Z,192.83
2018-09-21T22:12:22.134Z,271.20
2018-09-21T22:15:01.434Z,285.33
2018-09-21T22:17:42.431Z,319.67
2018-09-21T22:20:23.510Z,315.90
2018-09-21T22:23:04.452Z,333.23
2018-09-21T22:25:47.271Z,302.87
2018-09-21T22:28:30.309Z,325.23
2018-09-21T22:31:11.575Z,319.00
2018-09-21T22:33:50.451Z,322.27
2018-09-21T22:36:31.629Z,329.97
2018-09-21T22:39:15.431Z,325.53
2018-09-21T22:41:57.533Z,376.07
2018-09-21T22:44:37.931Z,334.33
2018-09-21T22:47:17.871Z,331.93
2018-09-21T22:49:58.228Z,350.83
2018-09-21T22:52:39.055Z,370.97
2018-09-21T22:55:17.067Z,300.70
2018-09-21T22:57:59.069Z,253.50
2018-09-21T23:00:39.027Z,332.07
2018-09-21T23:03:21.112Z,246.20
2018-09-21T23:06:02.652Z,130.23
2018-09-21T23:08:43.648Z,131.57
2018-09-21T23:11:24.529Z,64.47
2018-09-21T23:14:04.968Z,37.13
2018-09-21T23:16:46.346Z,34.23
2018-09-21T23:19:26.472Z,57.50
2018-09-21T23:22:07.796Z,103.33
2018-09-21T23:24:45.025Z,143.87
2018-09-21T23:27:26.008Z,193.07
2018-09-21T23:30:06.654Z,268.03
2018-09-21T23:32:44.489Z,272.57
2018-09-21T23:35:23.890Z,357.40
2018-09-21T23:38:04.951Z,484.13
2018-09-21T23:40:44.756Z,453.70
2018-09-21T23:43:27.249Z,461.93
2018-09-21T23:46:08.413Z,233.50
2018-09-21T23:48:49.252Z,315.83
2018-09-21T23:51:31.571Z,62.87
2018-09-21T23:54:12.851Z,21.40
2018-09-21T23:56:54.152Z,20.20
2018-09-21T23:59:37.067Z,78.87
